NPT592 EHAM-LFPG
Flight info
| Callsign | NPT592 |
|---|---|
| Flight time | 0h 53m |
| Altitude | 30000 |
| Route | WOODY N872 NIK DCT NILEM DCT MOPIL |
| Aircraft | B738/M-SDE2E3FGHIRWXY/LB1 |
Departure
| Time | 2026-05-07 20:41 |
|---|---|
| Airport | Amsterdam Airport Schiphol (EHAM) |
Arrival
| Time | 2026-05-07 21:35 |
|---|---|
| Airport | Charles de Gaulle International Airport (LFPG) |
| Time | Latitude | Longitude | Altitude | Speed | Heading |
|---|---|---|---|---|---|
| 2026-05-07 20:05 | 52.29391 | 4.75936 | -2 ft | 0 kts | 149° |
| 2026-05-07 20:32 | 52.29391 | 4.75935 | -2 ft | 2 kts | 149° |
| 2026-05-07 20:32 | 52.29412 | 4.75915 | -2 ft | 4 kts | 149° |
| 2026-05-07 20:32 | 52.29436 | 4.75893 | -2 ft | 4 kts | 151° |
| 2026-05-07 20:32 | 52.29460 | 4.75872 | -2 ft | 4 kts | 155° |
| 2026-05-07 20:33 | 52.29485 | 4.75856 | -2 ft | 4 kts | 170° |
| 2026-05-07 20:33 | 52.29506 | 4.75857 | -2 ft | 4 kts | 237° |
| 2026-05-07 20:33 | 52.29508 | 4.75862 | -2 ft | 0 kts | 252° |
| 2026-05-07 20:35 | 52.29506 | 4.75850 | -2 ft | 4 kts | 252° |
| 2026-05-07 20:36 | 52.29485 | 4.75760 | -2 ft | 13 kts | 245° |
| 2026-05-07 20:36 | 52.29439 | 4.75627 | -2 ft | 9 kts | 239° |
| 2026-05-07 20:36 | 52.29464 | 4.75527 | -2 ft | 14 kts | 324° |
| 2026-05-07 20:36 | 52.29567 | 4.75419 | -3 ft | 21 kts | 327° |
| 2026-05-07 20:37 | 52.29684 | 4.75300 | -2 ft | 14 kts | 329° |
| 2026-05-07 20:37 | 52.29799 | 4.75264 | -2 ft | 19 kts | 340° |
| 2026-05-07 20:37 | 52.29888 | 4.75109 | -2 ft | 22 kts | 310° |
| 2026-05-07 20:37 | 52.29999 | 4.74901 | -2 ft | 27 kts | 312° |
| 2026-05-07 20:38 | 52.30130 | 4.74662 | 8 ft | 28 kts | 312° |
| 2026-05-07 20:38 | 52.30254 | 4.74432 | 9 ft | 23 kts | 311° |
| 2026-05-07 20:38 | 52.30355 | 4.74237 | -2 ft | 14 kts | 310° |
| 2026-05-07 20:38 | 52.30371 | 4.74184 | -2 ft | 5 kts | 274° |
| 2026-05-07 20:39 | 52.30371 | 4.74162 | -2 ft | 4 kts | 265° |
| 2026-05-07 20:39 | 52.30356 | 4.74099 | -2 ft | 8 kts | 240° |
| 2026-05-07 20:39 | 52.30303 | 4.74015 | -2 ft | 13 kts | 216° |
| 2026-05-07 20:39 | 52.30219 | 4.73911 | -2 ft | 18 kts | 219° |
| 2026-05-07 20:40 | 52.30190 | 4.73805 | -3 ft | 10 kts | 275° |
| 2026-05-07 20:40 | 52.30219 | 4.73738 | -4 ft | 9 kts | 1° |
| 2026-05-07 20:40 | 52.30304 | 4.73746 | -5 ft | 15 kts | 3° |
| 2026-05-07 20:40 | 52.30477 | 4.73763 | -4 ft | 53 kts | 4° |
| 2026-05-07 20:41 | 52.31154 | 4.73824 | -2 ft | 138 kts | 2° |
| 2026-05-07 20:41 | 52.32223 | 4.73880 | 633 ft | 158 kts | 1° |
| 2026-05-07 20:41 | 52.33314 | 4.74002 | 1679 ft | 162 kts | 11° |
| 2026-05-07 20:41 | 52.34432 | 4.74400 | 2577 ft | 170 kts | 22° |
| 2026-05-07 20:42 | 52.35597 | 4.75223 | 3166 ft | 197 kts | 25° |
| 2026-05-07 20:42 | 52.36860 | 4.76390 | 3603 ft | 223 kts | 46° |
| 2026-05-07 20:42 | 52.37543 | 4.78643 | 4271 ft | 229 kts | 86° |
| 2026-05-07 20:42 | 52.37313 | 4.81228 | 5163 ft | 234 kts | 107° |
| 2026-05-07 20:43 | 52.36532 | 4.83515 | 6214 ft | 231 kts | 138° |
| 2026-05-07 20:43 | 52.35125 | 4.84824 | 6948 ft | 245 kts | 166° |
| 2026-05-07 20:43 | 52.33343 | 4.85083 | 7456 ft | 266 kts | 181° |
| 2026-05-07 20:43 | 52.31466 | 4.85012 | 8354 ft | 273 kts | 182° |
| 2026-05-07 20:44 | 52.29545 | 4.84924 | 9302 ft | 279 kts | 181° |
| 2026-05-07 20:44 | 52.27585 | 4.84857 | 10252 ft | 284 kts | 181° |
| 2026-05-07 20:44 | 52.25550 | 4.84801 | 10763 ft | 305 kts | 181° |
| 2026-05-07 20:44 | 52.23328 | 4.84747 | 10970 ft | 333 kts | 181° |
| 2026-05-07 20:45 | 52.20951 | 4.84698 | 11529 ft | 347 kts | 181° |
| 2026-05-07 20:45 | 52.18519 | 4.84649 | 12320 ft | 352 kts | 181° |
| 2026-05-07 20:45 | 52.16049 | 4.84598 | 13186 ft | 358 kts | 181° |
| 2026-05-07 20:45 | 52.13546 | 4.84547 | 14076 ft | 362 kts | 181° |
| 2026-05-07 20:46 | 52.11017 | 4.84493 | 14926 ft | 366 kts | 182° |
| 2026-05-07 20:46 | 52.08455 | 4.84439 | 15812 ft | 370 kts | 182° |
| 2026-05-07 20:46 | 52.05871 | 4.84386 | 16714 ft | 374 kts | 181° |
| 2026-05-07 20:46 | 52.03253 | 4.84313 | 17589 ft | 378 kts | 184° |
| 2026-05-07 20:47 | 52.00687 | 4.83377 | 18383 ft | 382 kts | 204° |
| 2026-05-07 20:47 | 51.98297 | 4.81468 | 19185 ft | 384 kts | 207° |
| 2026-05-07 20:47 | 51.95905 | 4.79513 | 19950 ft | 388 kts | 207° |
| 2026-05-07 20:47 | 51.93474 | 4.77573 | 20681 ft | 391 kts | 207° |
| 2026-05-07 20:48 | 51.91287 | 4.75852 | 21338 ft | 395 kts | 207° |
| 2026-05-07 20:48 | 51.88800 | 4.73907 | 22063 ft | 398 kts | 207° |
| 2026-05-07 20:48 | 51.86294 | 4.71953 | 22765 ft | 402 kts | 207° |
| 2026-05-07 20:48 | 51.83762 | 4.69980 | 23454 ft | 406 kts | 207° |
| 2026-05-07 20:49 | 51.81209 | 4.67990 | 24045 ft | 409 kts | 207° |
| 2026-05-07 20:49 | 51.78636 | 4.65986 | 24597 ft | 412 kts | 207° |
| 2026-05-07 20:49 | 51.76037 | 4.63964 | 25153 ft | 415 kts | 207° |
| 2026-05-07 20:49 | 51.73425 | 4.61932 | 25692 ft | 418 kts | 207° |
| 2026-05-07 20:50 | 51.70795 | 4.59889 | 26206 ft | 421 kts | 207° |
| 2026-05-07 20:50 | 51.68180 | 4.57860 | 26713 ft | 424 kts | 207° |
| 2026-05-07 20:50 | 51.65512 | 4.55792 | 27219 ft | 427 kts | 207° |
| 2026-05-07 20:50 | 51.62836 | 4.53721 | 27825 ft | 427 kts | 207° |
| 2026-05-07 20:51 | 51.60168 | 4.51659 | 28513 ft | 425 kts | 207° |
| 2026-05-07 20:51 | 51.57506 | 4.49605 | 29055 ft | 423 kts | 207° |
| 2026-05-07 20:51 | 51.54814 | 4.47529 | 29393 ft | 424 kts | 207° |
| 2026-05-07 20:51 | 51.52166 | 4.45489 | 29680 ft | 421 kts | 207° |
| 2026-05-07 20:52 | 51.49561 | 4.43485 | 29955 ft | 419 kts | 208° |
| 2026-05-07 20:52 | 51.46896 | 4.41435 | 30077 ft | 422 kts | 208° |
| 2026-05-07 20:52 | 51.44243 | 4.39397 | 30072 ft | 422 kts | 208° |
| 2026-05-07 20:53 | 51.38964 | 4.35370 | 30081 ft | 420 kts | 207° |
| 2026-05-07 20:53 | 51.33655 | 4.31412 | 30081 ft | 421 kts | 207° |
| 2026-05-07 20:54 | 51.28387 | 4.27458 | 30096 ft | 421 kts | 208° |
| 2026-05-07 20:54 | 51.23064 | 4.23390 | 30090 ft | 421 kts | 208° |
| 2026-05-07 20:55 | 51.17764 | 4.19561 | 30092 ft | 423 kts | 201° |
| 2026-05-07 20:55 | 51.11944 | 4.17890 | 30099 ft | 429 kts | 186° |
| 2026-05-07 20:56 | 51.05973 | 4.17506 | 30090 ft | 430 kts | 185° |
| 2026-05-07 20:56 | 51.00003 | 4.17138 | 30093 ft | 429 kts | 185° |
| 2026-05-07 20:57 | 50.94035 | 4.16716 | 30094 ft | 429 kts | 185° |
| 2026-05-07 20:57 | 50.88075 | 4.16270 | 30099 ft | 429 kts | 186° |
| 2026-05-07 20:58 | 50.83118 | 4.15894 | 30096 ft | 429 kts | 186° |
| 2026-05-07 20:58 | 50.77157 | 4.15444 | 30085 ft | 429 kts | 185° |
| 2026-05-07 20:59 | 50.71202 | 4.14997 | 30090 ft | 428 kts | 185° |
| 2026-05-07 20:59 | 50.65247 | 4.14552 | 30086 ft | 428 kts | 185° |
| 2026-05-07 21:00 | 50.59295 | 4.14107 | 30082 ft | 428 kts | 185° |
| 2026-05-07 21:00 | 50.53348 | 4.13663 | 30080 ft | 427 kts | 185° |
| 2026-05-07 21:01 | 50.47408 | 4.13221 | 30099 ft | 427 kts | 185° |
| 2026-05-07 21:01 | 50.41483 | 4.12781 | 30083 ft | 422 kts | 185° |
| 2026-05-07 21:01 | 50.38577 | 4.12566 | 29766 ft | 413 kts | 185° |
| 2026-05-07 21:02 | 50.35749 | 4.12357 | 29383 ft | 402 kts | 185° |
| 2026-05-07 21:02 | 50.32977 | 4.12151 | 28977 ft | 394 kts | 185° |
| 2026-05-07 21:02 | 50.30262 | 4.11952 | 28544 ft | 387 kts | 185° |
| 2026-05-07 21:02 | 50.27596 | 4.11754 | 28107 ft | 381 kts | 185° |
| 2026-05-07 21:03 | 50.24962 | 4.11560 | 27686 ft | 377 kts | 185° |
| 2026-05-07 21:03 | 50.22356 | 4.11366 | 27248 ft | 372 kts | 185° |
| 2026-05-07 21:03 | 50.19774 | 4.11174 | 26838 ft | 372 kts | 185° |
| 2026-05-07 21:03 | 50.17150 | 4.10978 | 26428 ft | 385 kts | 185° |
| 2026-05-07 21:04 | 50.14442 | 4.10777 | 26004 ft | 390 kts | 185° |
| 2026-05-07 21:04 | 50.11751 | 4.10581 | 25691 ft | 385 kts | 185° |
| 2026-05-07 21:04 | 50.09077 | 4.10385 | 25390 ft | 385 kts | 185° |
| 2026-05-07 21:04 | 50.06393 | 4.10187 | 25092 ft | 387 kts | 185° |
| 2026-05-07 21:05 | 50.03745 | 4.09991 | 24791 ft | 385 kts | 185° |
| 2026-05-07 21:05 | 50.01076 | 4.09793 | 24490 ft | 383 kts | 185° |
| 2026-05-07 21:05 | 49.98422 | 4.09596 | 24187 ft | 381 kts | 185° |
| 2026-05-07 21:05 | 49.95775 | 4.09400 | 23889 ft | 380 kts | 185° |
| 2026-05-07 21:06 | 49.93138 | 4.09204 | 23588 ft | 379 kts | 185° |
| 2026-05-07 21:06 | 49.90468 | 4.09005 | 23231 ft | 378 kts | 185° |
| 2026-05-07 21:06 | 49.87883 | 4.08813 | 22906 ft | 376 kts | 185° |
| 2026-05-07 21:06 | 49.85275 | 4.08620 | 22602 ft | 374 kts | 185° |
| 2026-05-07 21:07 | 49.82682 | 4.08428 | 22308 ft | 372 kts | 185° |
| 2026-05-07 21:07 | 49.80101 | 4.08237 | 22015 ft | 371 kts | 185° |
| 2026-05-07 21:07 | 49.77526 | 4.08046 | 21709 ft | 370 kts | 185° |
| 2026-05-07 21:07 | 49.74925 | 4.07853 | 21416 ft | 369 kts | 185° |
| 2026-05-07 21:08 | 49.72403 | 4.07666 | 21128 ft | 368 kts | 185° |
| 2026-05-07 21:08 | 49.69851 | 4.07477 | 20840 ft | 367 kts | 185° |
| 2026-05-07 21:08 | 49.67307 | 4.07289 | 20546 ft | 366 kts | 185° |
| 2026-05-07 21:08 | 49.64771 | 4.07104 | 20260 ft | 364 kts | 185° |
| 2026-05-07 21:09 | 49.62251 | 4.06825 | 19963 ft | 361 kts | 192° |
| 2026-05-07 21:09 | 49.59943 | 4.05435 | 19683 ft | 354 kts | 214° |
| 2026-05-07 21:09 | 49.58091 | 4.03000 | 19408 ft | 350 kts | 231° |
| 2026-05-07 21:09 | 49.56698 | 3.99948 | 19158 ft | 347 kts | 238° |
| 2026-05-07 21:10 | 49.55405 | 3.96819 | 18885 ft | 346 kts | 238° |
| 2026-05-07 21:10 | 49.54128 | 3.93690 | 18606 ft | 345 kts | 238° |
| 2026-05-07 21:10 | 49.52844 | 3.90571 | 18327 ft | 344 kts | 238° |
| 2026-05-07 21:10 | 49.51557 | 3.87480 | 18016 ft | 342 kts | 238° |
| 2026-05-07 21:11 | 49.50266 | 3.84413 | 17730 ft | 341 kts | 238° |
| 2026-05-07 21:11 | 49.48978 | 3.81370 | 17451 ft | 339 kts | 237° |
| 2026-05-07 21:11 | 49.46910 | 3.74982 | 16938 ft | 333 kts | 256° |
| 2026-05-07 21:12 | 49.46377 | 3.71522 | 16667 ft | 333 kts | 256° |
| 2026-05-07 21:12 | 49.45821 | 3.68073 | 16394 ft | 332 kts | 256° |
| 2026-05-07 21:12 | 49.45250 | 3.64640 | 16132 ft | 331 kts | 255° |
| 2026-05-07 21:12 | 49.44674 | 3.61224 | 15928 ft | 329 kts | 255° |
| 2026-05-07 21:13 | 49.44099 | 3.57834 | 15736 ft | 327 kts | 255° |
| 2026-05-07 21:13 | 49.43526 | 3.54461 | 15567 ft | 326 kts | 255° |
| 2026-05-07 21:13 | 49.42954 | 3.51100 | 15371 ft | 325 kts | 255° |
| 2026-05-07 21:13 | 49.42380 | 3.47741 | 15194 ft | 325 kts | 255° |
| 2026-05-07 21:14 | 49.41786 | 3.44399 | 15020 ft | 325 kts | 252° |
| 2026-05-07 21:14 | 49.41007 | 3.41155 | 14873 ft | 324 kts | 248° |
| 2026-05-07 21:14 | 49.40140 | 3.37968 | 14734 ft | 323 kts | 246° |
| 2026-05-07 21:14 | 49.39267 | 3.34840 | 14594 ft | 323 kts | 246° |
| 2026-05-07 21:15 | 49.38385 | 3.31667 | 14450 ft | 323 kts | 246° |
| 2026-05-07 21:15 | 49.37499 | 3.28451 | 14306 ft | 323 kts | 247° |
| 2026-05-07 21:15 | 49.36631 | 3.25277 | 14163 ft | 323 kts | 247° |
| 2026-05-07 21:15 | 49.35778 | 3.22141 | 14026 ft | 323 kts | 247° |
| 2026-05-07 21:16 | 49.34917 | 3.18964 | 13882 ft | 323 kts | 247° |
| 2026-05-07 21:16 | 49.34058 | 3.15787 | 13722 ft | 322 kts | 247° |
| 2026-05-07 21:16 | 49.33201 | 3.12619 | 13566 ft | 322 kts | 247° |
| 2026-05-07 21:16 | 49.32343 | 3.09449 | 13421 ft | 321 kts | 247° |
| 2026-05-07 21:17 | 49.31488 | 3.06291 | 13269 ft | 321 kts | 247° |
| 2026-05-07 21:17 | 49.30635 | 3.03144 | 13128 ft | 320 kts | 247° |
| 2026-05-07 21:17 | 49.29780 | 2.99996 | 12987 ft | 320 kts | 247° |
| 2026-05-07 21:17 | 49.28926 | 2.96852 | 12845 ft | 319 kts | 247° |
| 2026-05-07 21:18 | 49.28073 | 2.93718 | 12708 ft | 319 kts | 247° |
| 2026-05-07 21:18 | 49.27219 | 2.90584 | 12559 ft | 319 kts | 247° |
| 2026-05-07 21:18 | 49.26365 | 2.87453 | 12414 ft | 318 kts | 247° |
| 2026-05-07 21:18 | 49.25516 | 2.84345 | 12273 ft | 316 kts | 247° |
| 2026-05-07 21:19 | 49.24669 | 2.81247 | 12138 ft | 315 kts | 247° |
| 2026-05-07 21:19 | 49.23825 | 2.78162 | 11997 ft | 314 kts | 247° |
| 2026-05-07 21:19 | 49.22981 | 2.75085 | 11858 ft | 313 kts | 247° |
| 2026-05-07 21:19 | 49.22142 | 2.72026 | 11719 ft | 312 kts | 247° |
| 2026-05-07 21:20 | 49.21302 | 2.68966 | 11589 ft | 312 kts | 247° |
| 2026-05-07 21:20 | 49.20463 | 2.65913 | 11452 ft | 311 kts | 247° |
| 2026-05-07 21:20 | 49.19632 | 2.62900 | 11308 ft | 302 kts | 247° |
| 2026-05-07 21:20 | 49.18829 | 2.59996 | 11165 ft | 292 kts | 247° |
| 2026-05-07 21:21 | 49.18121 | 2.57143 | 11007 ft | 283 kts | 257° |
| 2026-05-07 21:21 | 49.17965 | 2.54168 | 10803 ft | 280 kts | 268° |
| 2026-05-07 21:21 | 49.17930 | 2.51217 | 10529 ft | 282 kts | 268° |
| 2026-05-07 21:21 | 49.17889 | 2.48222 | 10303 ft | 281 kts | 268° |
| 2026-05-07 21:22 | 49.17837 | 2.45261 | 10067 ft | 276 kts | 267° |
| 2026-05-07 21:22 | 49.17777 | 2.42346 | 9826 ft | 272 kts | 267° |
| 2026-05-07 21:22 | 49.17714 | 2.39478 | 9583 ft | 268 kts | 267° |
| 2026-05-07 21:22 | 49.17647 | 2.36660 | 9358 ft | 265 kts | 266° |
| 2026-05-07 21:23 | 49.17492 | 2.33858 | 9144 ft | 265 kts | 264° |
| 2026-05-07 21:23 | 49.17298 | 2.31047 | 8929 ft | 266 kts | 263° |
| 2026-05-07 21:23 | 49.17103 | 2.28233 | 8711 ft | 267 kts | 264° |
| 2026-05-07 21:23 | 49.16914 | 2.25412 | 8493 ft | 267 kts | 264° |
| 2026-05-07 21:24 | 49.16726 | 2.22581 | 8280 ft | 268 kts | 264° |
| 2026-05-07 21:24 | 49.16539 | 2.19751 | 8066 ft | 267 kts | 264° |
| 2026-05-07 21:24 | 49.16344 | 2.16928 | 7845 ft | 267 kts | 261° |
| 2026-05-07 21:24 | 49.15662 | 2.14314 | 7616 ft | 268 kts | 233° |
| 2026-05-07 21:25 | 49.14232 | 2.12525 | 7409 ft | 269 kts | 205° |
| 2026-05-07 21:25 | 49.12422 | 2.11877 | 7202 ft | 268 kts | 181° |
| 2026-05-07 21:25 | 49.10575 | 2.12045 | 6994 ft | 264 kts | 175° |
| 2026-05-07 21:25 | 49.08763 | 2.12323 | 6814 ft | 255 kts | 174° |
| 2026-05-07 21:26 | 49.07075 | 2.12584 | 6698 ft | 233 kts | 174° |
| 2026-05-07 21:26 | 49.05531 | 2.12811 | 6570 ft | 213 kts | 175° |
| 2026-05-07 21:26 | 49.04117 | 2.13009 | 6443 ft | 197 kts | 175° |
| 2026-05-07 21:26 | 49.02778 | 2.13192 | 6158 ft | 195 kts | 175° |
| 2026-05-07 21:27 | 49.01440 | 2.13243 | 5912 ft | 190 kts | 193° |
| 2026-05-07 21:27 | 49.00227 | 2.12584 | 5768 ft | 181 kts | 202° |
| 2026-05-07 21:27 | 48.99042 | 2.11963 | 5609 ft | 181 kts | 188° |
| 2026-05-07 21:27 | 48.97871 | 2.12460 | 5521 ft | 180 kts | 136° |
| 2026-05-07 21:28 | 48.97372 | 2.14151 | 5440 ft | 182 kts | 92° |
| 2026-05-07 21:28 | 48.97341 | 2.16104 | 5311 ft | 186 kts | 89° |
| 2026-05-07 21:28 | 48.97369 | 2.18026 | 5316 ft | 181 kts | 86° |
| 2026-05-07 21:28 | 48.97435 | 2.19939 | 5107 ft | 184 kts | 85° |
| 2026-05-07 21:29 | 48.97521 | 2.21876 | 4867 ft | 182 kts | 85° |
| 2026-05-07 21:29 | 48.97612 | 2.23786 | 4622 ft | 180 kts | 85° |
| 2026-05-07 21:29 | 48.97704 | 2.25647 | 4376 ft | 171 kts | 85° |
| 2026-05-07 21:29 | 48.97793 | 2.27428 | 4159 ft | 169 kts | 85° |
| 2026-05-07 21:30 | 48.97882 | 2.29199 | 3924 ft | 167 kts | 85° |
| 2026-05-07 21:30 | 48.97969 | 2.30937 | 3704 ft | 160 kts | 85° |
| 2026-05-07 21:30 | 48.98053 | 2.32562 | 3496 ft | 152 kts | 85° |
| 2026-05-07 21:30 | 48.98135 | 2.34169 | 3293 ft | 153 kts | 86° |
| 2026-05-07 21:31 | 48.98215 | 2.35788 | 3082 ft | 154 kts | 86° |
| 2026-05-07 21:31 | 48.98296 | 2.37404 | 2874 ft | 152 kts | 86° |
| 2026-05-07 21:31 | 48.98378 | 2.39009 | 2662 ft | 152 kts | 86° |
| 2026-05-07 21:31 | 48.98461 | 2.40607 | 2470 ft | 150 kts | 85° |
| 2026-05-07 21:32 | 48.98535 | 2.42165 | 2328 ft | 147 kts | 85° |
| 2026-05-07 21:32 | 48.98627 | 2.43728 | 2104 ft | 150 kts | 85° |
| 2026-05-07 21:32 | 48.98719 | 2.45315 | 1849 ft | 152 kts | 85° |
| 2026-05-07 21:32 | 48.98815 | 2.46864 | 1735 ft | 137 kts | 86° |
| 2026-05-07 21:33 | 48.98875 | 2.48285 | 1554 ft | 134 kts | 87° |
| 2026-05-07 21:33 | 48.98941 | 2.49788 | 1306 ft | 148 kts | 86° |
| 2026-05-07 21:33 | 48.99014 | 2.51380 | 1048 ft | 152 kts | 85° |
| 2026-05-07 21:33 | 48.99107 | 2.52967 | 856 ft | 149 kts | 84° |
| 2026-05-07 21:34 | 48.99183 | 2.54528 | 662 ft | 148 kts | 85° |
| 2026-05-07 21:34 | 48.99271 | 2.56097 | 473 ft | 148 kts | 84° |
| 2026-05-07 21:34 | 48.99350 | 2.57638 | 352 ft | 138 kts | 84° |
| 2026-05-07 21:34 | 48.99405 | 2.58625 | 352 ft | 105 kts | 85° |
| 2026-05-07 21:35 | 48.99447 | 2.59485 | 352 ft | 46 kts | 86° |
| 2026-05-07 21:35 | 48.99478 | 2.59807 | 357 ft | 21 kts | 71° |
| 2026-05-07 21:35 | 48.99533 | 2.59938 | 356 ft | 14 kts | 39° |
| 2026-05-07 21:35 | 48.99621 | 2.59981 | 353 ft | 9 kts | 358° |
| 2026-05-07 21:36 | 48.99671 | 2.59974 | 356 ft | 7 kts | 354° |
| 2026-05-07 21:36 | 48.99723 | 2.59967 | 356 ft | 8 kts | 355° |
| 2026-05-07 21:36 | 48.99791 | 2.59959 | 362 ft | 11 kts | 356° |
| 2026-05-07 21:36 | 48.99872 | 2.59964 | 353 ft | 12 kts | 25° |
| 2026-05-07 21:37 | 48.99932 | 2.60057 | 358 ft | 12 kts | 37° |
| 2026-05-07 21:37 | 49.00007 | 2.60042 | 362 ft | 12 kts | 320° |
| 2026-05-07 21:37 | 49.00051 | 2.59999 | 355 ft | 8 kts | 341° |
| 2026-05-07 21:37 | 49.00094 | 2.59956 | 356 ft | 8 kts | 291° |
| 2026-05-07 21:38 | 49.00093 | 2.59870 | 353 ft | 8 kts | 265° |
| 2026-05-07 21:38 | 49.00087 | 2.59776 | 362 ft | 9 kts | 264° |
| 2026-05-07 21:38 | 49.00083 | 2.59671 | 359 ft | 12 kts | 266° |
| 2026-05-07 21:38 | 49.00075 | 2.59536 | 355 ft | 14 kts | 264° |
| 2026-05-07 21:39 | 49.00067 | 2.59392 | 353 ft | 14 kts | 265° |
| 2026-05-07 21:39 | 49.00060 | 2.59250 | 353 ft | 13 kts | 266° |
| 2026-05-07 21:39 | 49.00054 | 2.59111 | 353 ft | 13 kts | 264° |
| 2026-05-07 21:39 | 49.00045 | 2.58972 | 356 ft | 13 kts | 265° |
| 2026-05-07 21:40 | 49.00038 | 2.58836 | 353 ft | 13 kts | 265° |
| 2026-05-07 21:40 | 49.00030 | 2.58694 | 358 ft | 14 kts | 265° |
| 2026-05-07 21:40 | 49.00021 | 2.58513 | 353 ft | 20 kts | 265° |
| 2026-05-07 21:40 | 49.00010 | 2.58282 | 358 ft | 24 kts | 266° |
| 2026-05-07 21:41 | 48.99995 | 2.58016 | 353 ft | 27 kts | 266° |
| 2026-05-07 21:41 | 48.99979 | 2.57720 | 353 ft | 28 kts | 265° |
| 2026-05-07 21:41 | 48.99964 | 2.57431 | 353 ft | 26 kts | 266° |
| 2026-05-07 21:41 | 48.99949 | 2.57162 | 355 ft | 25 kts | 265° |
| 2026-05-07 21:42 | 48.99935 | 2.56913 | 353 ft | 23 kts | 265° |
| 2026-05-07 21:42 | 48.99923 | 2.56676 | 353 ft | 22 kts | 265° |
| 2026-05-07 21:42 | 48.99911 | 2.56447 | 359 ft | 21 kts | 265° |
| 2026-05-07 21:42 | 48.99900 | 2.56226 | 356 ft | 21 kts | 266° |
| 2026-05-07 21:43 | 48.99889 | 2.56013 | 353 ft | 20 kts | 265° |
| 2026-05-07 21:43 | 48.99911 | 2.55811 | 358 ft | 19 kts | 285° |
| 2026-05-07 21:43 | 48.99977 | 2.55661 | 360 ft | 14 kts | 337° |
| 2026-05-07 21:43 | 49.00034 | 2.55598 | 353 ft | 7 kts | 278° |
| 2026-05-07 21:44 | 49.00009 | 2.55534 | 353 ft | 7 kts | 234° |
| 2026-05-07 21:44 | 48.99987 | 2.55470 | 358 ft | 7 kts | 255° |
| 2026-05-07 21:44 | 48.99981 | 2.55389 | 353 ft | 9 kts | 265° |
| 2026-05-07 21:44 | 48.99975 | 2.55287 | 353 ft | 11 kts | 265° |
| 2026-05-07 21:45 | 48.99969 | 2.55165 | 353 ft | 12 kts | 266° |
| 2026-05-07 21:45 | 48.99961 | 2.55027 | 353 ft | 14 kts | 265° |
| 2026-05-07 21:45 | 48.99953 | 2.54874 | 353 ft | 15 kts | 265° |
| 2026-05-07 21:45 | 48.99948 | 2.54770 | 360 ft | 15 kts | 264° |
| 2026-05-07 21:46 | 48.99940 | 2.54605 | 353 ft | 16 kts | 265° |
| 2026-05-07 21:46 | 48.99931 | 2.54445 | 353 ft | 15 kts | 265° |
| 2026-05-07 21:46 | 48.99922 | 2.54292 | 353 ft | 14 kts | 264° |
| 2026-05-07 21:46 | 48.99939 | 2.54211 | 358 ft | 6 kts | 343° |
| 2026-05-07 21:47 | 48.99966 | 2.54204 | 357 ft | 2 kts | 353° |
| 2026-05-07 21:47 | 48.99969 | 2.54203 | 356 ft | 0 kts | 354° |
| 2026-05-07 21:47 | 48.99970 | 2.54203 | 356 ft | 0 kts | 354° |
| 2026-05-07 21:47 | 48.99982 | 2.54202 | 353 ft | 3 kts | 354° |
| 2026-05-07 21:48 | 49.00002 | 2.54199 | 353 ft | 0 kts | 354° |